sensor_id;sensor_type;location;lat;lon;timestamp;pressure;altitude;pressure_sealevel;temperature;humidity
70011;BME280;59543;37.950;-122.338;2023-06-04T00:00:31;101009.44;;;20.99;52.86
70011;BME280;59543;37.950;-122.338;2023-06-04T00:02:58;101015.31;;;21.22;52.25
70011;BME280;59543;37.950;-122.338;2023-06-04T00:05:24;101006.72;;;20.99;53.17
70011;BME280;59543;37.950;-122.338;2023-06-04T00:07:52;101010.03;;;20.54;54.79
70011;BME280;59543;37.950;-122.338;2023-06-04T00:10:18;101006.22;;;20.36;55.45
70011;BME280;59543;37.950;-122.338;2023-06-04T00:12:44;101012.50;;;20.29;55.91
70011;BME280;59543;37.950;-122.338;2023-06-04T00:15:11;101011.19;;;20.12;57.23
70011;BME280;59543;37.950;-122.338;2023-06-04T00:17:37;101005.56;;;20.33;56.75
70011;BME280;59543;37.950;-122.338;2023-06-04T00:20:03;101011.16;;;19.99;57.51
70011;BME280;59543;37.950;-122.338;2023-06-04T00:22:30;101007.06;;;19.75;58.97
70011;BME280;59543;37.950;-122.338;2023-06-04T00:24:56;100996.59;;;19.85;59.72
70011;BME280;59543;37.950;-122.338;2023-06-04T00:27:22;101004.16;;;19.48;60.68
70011;BME280;59543;37.950;-122.338;2023-06-04T00:29:48;100998.44;;;19.71;59.46
70011;BME280;59543;37.950;-122.338;2023-06-04T00:32:15;100993.78;;;19.65;59.65
70011;BME280;59543;37.950;-122.338;2023-06-04T00:34:41;101009.66;;;19.55;59.67
70011;BME280;59543;37.950;-122.338;2023-06-04T00:37:07;101002.69;;;19.11;61.28
70011;BME280;59543;37.950;-122.338;2023-06-04T00:39:33;101009.47;;;18.93;61.03
70011;BME280;59543;37.950;-122.338;2023-06-04T00:42:00;100997.81;;;18.78;62.05
70011;BME280;59543;37.950;-122.338;2023-06-04T00:44:27;101003.00;;;18.73;62.14
70011;BME280;59543;37.950;-122.338;2023-06-04T00:46:54;100997.00;;;18.84;61.23
70011;BME280;59543;37.950;-122.338;2023-06-04T00:49:20;100998.69;;;18.85;61.54
70011;BME280;59543;37.950;-122.338;2023-06-04T00:51:47;100999.41;;;18.72;61.55
70011;BME280;59543;37.950;-122.338;2023-06-04T00:54:14;100984.41;;;18.40;61.90
70011;BME280;59543;37.950;-122.338;2023-06-04T00:56:43;100981.31;;;18.43;61.61
70011;BME280;59543;37.950;-122.338;2023-06-04T00:59:10;100982.13;;;18.22;62.89
70011;BME280;59543;37.950;-122.338;2023-06-04T01:02:05;100978.97;;;18.19;62.54
70011;BME280;59543;37.950;-122.338;2023-06-04T01:07:03;100966.13;;;18.13;62.39
70011;BME280;59543;37.950;-122.338;2023-06-04T01:09:31;100966.00;;;18.21;62.23
70011;BME280;59543;37.950;-122.338;2023-06-04T01:11:57;100955.44;;;18.33;62.60
70011;BME280;59543;37.950;-122.338;2023-06-04T01:14:24;100962.44;;;18.42;61.76
70011;BME280;59543;37.950;-122.338;2023-06-04T01:19:57;100962.19;;;18.37;62.11
70011;BME280;59543;37.950;-122.338;2023-06-04T01:25:05;100956.03;;;18.28;62.42
70011;BME280;59543;37.950;-122.338;2023-06-04T01:27:35;100962.84;;;18.17;61.90
70011;BME280;59543;37.950;-122.338;2023-06-04T01:30:02;100967.56;;;18.09;62.58
70011;BME280;59543;37.950;-122.338;2023-06-04T01:32:29;100954.28;;;18.20;62.11
70011;BME280;59543;37.950;-122.338;2023-06-04T01:34:56;100959.91;;;18.19;61.87
70011;BME280;59543;37.950;-122.338;2023-06-04T01:37:25;100953.03;;;18.23;61.92
70011;BME280;59543;37.950;-122.338;2023-06-04T01:39:52;100962.06;;;18.23;62.46
70011;BME280;59543;37.950;-122.338;2023-06-04T01:42:18;100953.56;;;18.33;61.96
70011;BME280;59543;37.950;-122.338;2023-06-04T01:44:44;100967.63;;;18.15;62.31
70011;BME280;59543;37.950;-122.338;2023-06-04T01:47:10;100957.31;;;18.11;61.77
70011;BME280;59543;37.950;-122.338;2023-06-04T01:49:37;100963.13;;;18.08;62.36
70011;BME280;59543;37.950;-122.338;2023-06-04T01:52:03;100965.22;;;18.27;62.19
70011;BME280;59543;37.950;-122.338;2023-06-04T01:54:30;100967.00;;;17.98;62.77
70011;BME280;59543;37.950;-122.338;2023-06-04T01:56:58;100967.84;;;17.99;62.75
70011;BME280;59543;37.950;-122.338;2023-06-04T01:59:24;100972.34;;;18.07;62.64
70011;BME280;59543;37.950;-122.338;2023-06-04T02:01:51;100967.41;;;17.95;63.63
70011;BME280;59543;37.950;-122.338;2023-06-04T02:04:17;100966.63;;;18.23;62.43
70011;BME280;59543;37.950;-122.338;2023-06-04T02:06:43;100972.34;;;18.07;62.77
70011;BME280;59543;37.950;-122.338;2023-06-04T02:09:09;100967.97;;;18.27;62.94
70011;BME280;59543;37.950;-122.338;2023-06-04T02:11:36;100980.84;;;18.40;62.18
70011;BME280;59543;37.950;-122.338;2023-06-04T02:14:02;100982.81;;;18.46;61.94
70011;BME280;59543;37.950;-122.338;2023-06-04T02:16:28;100981.56;;;18.48;61.99
70011;BME280;59543;37.950;-122.338;2023-06-04T02:18:54;100985.72;;;18.66;61.40
70011;BME280;59543;37.950;-122.338;2023-06-04T02:21:21;100982.75;;;18.39;61.78
70011;BME280;59543;37.950;-122.338;2023-06-04T02:23:47;100986.63;;;18.30;61.96
70011;BME280;59543;37.950;-122.338;2023-06-04T02:26:13;100983.69;;;18.10;62.73
70011;BME280;59543;37.950;-122.338;2023-06-04T02:28:39;100980.22;;;18.01;62.98
70011;BME280;59543;37.950;-122.338;2023-06-04T02:31:05;100979.75;;;18.34;62.18
70011;BME280;59543;37.950;-122.338;2023-06-04T02:33:32;100978.97;;;18.19;61.97
70011;BME280;59543;37.950;-122.338;2023-06-04T02:35:58;100983.03;;;17.27;65.32
70011;BME280;59543;37.950;-122.338;2023-06-04T02:38:24;100984.72;;;17.28;65.58
70011;BME280;59543;37.950;-122.338;2023-06-04T02:40:50;100983.66;;;17.29;65.55
70011;BME280;59543;37.950;-122.338;2023-06-04T02:43:16;100987.72;;;16.81;66.91
70011;BME280;59543;37.950;-122.338;2023-06-04T02:45:43;100984.34;;;16.33;68.94
70011;BME280;59543;37.950;-122.338;2023-06-04T02:48:09;100991.72;;;16.47;68.66
70011;BME280;59543;37.950;-122.338;2023-06-04T02:50:35;100980.66;;;16.34;69.40
70011;BME280;59543;37.950;-122.338;2023-06-04T02:53:01;100987.00;;;15.95;71.29
70011;BME280;59543;37.950;-122.338;2023-06-04T02:55:28;100989.16;;;15.60;72.76
70011;BME280;59543;37.950;-122.338;2023-06-04T02:57:54;100987.56;;;15.35;74.37
70011;BME280;59543;37.950;-122.338;2023-06-04T03:00:20;100991.19;;;15.02;75.42
70011;BME280;59543;37.950;-122.338;2023-06-04T03:02:47;100992.06;;;14.86;76.18
70011;BME280;59543;37.950;-122.338;2023-06-04T03:05:15;100990.56;;;14.51;78.16
70011;BME280;59543;37.950;-122.338;2023-06-04T03:07:44;100990.34;;;14.20;79.74
70011;BME280;59543;37.950;-122.338;2023-06-04T03:10:11;100987.25;;;14.15;80.25
70011;BME280;59543;37.950;-122.338;2023-06-04T03:12:38;100993.69;;;14.06;80.81
70011;BME280;59543;37.950;-122.338;2023-06-04T03:15:05;100992.97;;;14.04;81.27
70011;BME280;59543;37.950;-122.338;2023-06-04T03:17:32;101000.41;;;13.93;81.65
70011;BME280;59543;37.950;-122.338;2023-06-04T03:19:58;101004.91;;;13.77;82.35
70011;BME280;59543;37.950;-122.338;2023-06-04T03:22:24;101001.66;;;13.65;83.03
70011;BME280;59543;37.950;-122.338;2023-06-04T03:24:51;100995.06;;;13.67;83.11
70011;BME280;59543;37.950;-122.338;2023-06-04T03:27:18;101002.47;;;13.65;83.66
70011;BME280;59543;37.950;-122.338;2023-06-04T03:29:44;100997.94;;;13.66;83.33
70011;BME280;59543;37.950;-122.338;2023-06-04T03:32:11;100990.47;;;13.60;83.70
70011;BME280;59543;37.950;-122.338;2023-06-04T03:34:38;101004.34;;;13.65;83.03
70011;BME280;59543;37.950;-122.338;2023-06-04T03:37:05;101000.88;;;13.46;83.77
70011;BME280;59543;37.950;-122.338;2023-06-04T03:39:31;101001.59;;;13.48;83.72
70011;BME280;59543;37.950;-122.338;2023-06-04T03:41:57;101000.00;;;13.38;84.39
70011;BME280;59543;37.950;-122.338;2023-06-04T03:44:23;100995.75;;;13.35;84.41
70011;BME280;59543;37.950;-122.338;2023-06-04T03:46:50;100991.59;;;13.23;84.62
70011;BME280;59543;37.950;-122.338;2023-06-04T03:49:16;100990.16;;;13.29;84.46
70011;BME280;59543;37.950;-122.338;2023-06-04T03:51:43;100993.66;;;13.21;84.83
70011;BME280;59543;37.950;-122.338;2023-06-04T03:54:09;100993.97;;;13.18;85.11
70011;BME280;59543;37.950;-122.338;2023-06-04T03:56:35;100995.59;;;13.11;84.93
70011;BME280;59543;37.950;-122.338;2023-06-04T03:59:02;100996.50;;;13.19;84.29
70011;BME280;59543;37.950;-122.338;2023-06-04T04:01:28;100994.13;;;13.16;84.32
70011;BME280;59543;37.950;-122.338;2023-06-04T04:03:54;100999.84;;;13.13;84.03
70011;BME280;59543;37.950;-122.338;2023-06-04T04:06:21;101001.69;;;13.13;83.89
70011;BME280;59543;37.950;-122.338;2023-06-04T04:08:47;101002.00;;;13.10;84.08
70011;BME280;59543;37.950;-122.338;2023-06-04T04:11:15;101001.19;;;13.17;83.80
70011;BME280;59543;37.950;-122.338;2023-06-04T04:13:42;101000.63;;;13.05;83.97
70011;BME280;59543;37.950;-122.338;2023-06-04T04:16:08;100999.56;;;12.98;84.15
70011;BME280;59543;37.950;-122.338;2023-06-04T04:18:36;101005.78;;;12.91;84.79
70011;BME280;59543;37.950;-122.338;2023-06-04T04:21:03;101006.44;;;12.93;84.90
70011;BME280;59543;37.950;-122.338;2023-06-04T04:23:31;101005.13;;;12.97;85.22
70011;BME280;59543;37.950;-122.338;2023-06-04T04:26:00;101010.69;;;12.95;84.59
70011;BME280;59543;37.950;-122.338;2023-06-04T04:28:28;101007.59;;;12.90;84.61
70011;BME280;59543;37.950;-122.338;2023-06-04T04:30:57;101016.25;;;12.94;84.61
70011;BME280;59543;37.950;-122.338;2023-06-04T04:33:25;101007.78;;;12.89;84.71
70011;BME280;59543;37.950;-122.338;2023-06-04T04:35:51;101013.09;;;12.80;85.22
70011;BME280;59543;37.950;-122.338;2023-06-04T04:38:21;101011.56;;;12.78;85.71
70011;BME280;59543;37.950;-122.338;2023-06-04T04:40:51;101004.47;;;12.77;85.64
70011;BME280;59543;37.950;-122.338;2023-06-04T04:43:34;101006.56;;;12.65;86.63
70011;BME280;59543;37.950;-122.338;2023-06-04T04:46:01;101008.56;;;12.63;86.38
70011;BME280;59543;37.950;-122.338;2023-06-04T04:48:27;101008.81;;;12.70;86.25
70011;BME280;59543;37.950;-122.338;2023-06-04T04:50:54;101001.38;;;12.72;86.37
70011;BME280;59543;37.950;-122.338;2023-06-04T04:53:20;100994.94;;;12.65;86.56
70011;BME280;59543;37.950;-122.338;2023-06-04T04:55:46;101001.03;;;12.67;86.96
70011;BME280;59543;37.950;-122.338;2023-06-04T04:58:13;101005.25;;;12.69;86.69
70011;BME280;59543;37.950;-122.338;2023-06-04T05:00:39;100994.44;;;12.69;86.85
70011;BME280;59543;37.950;-122.338;2023-06-04T05:03:05;101004.16;;;12.80;86.61
70011;BME280;59543;37.950;-122.338;2023-06-04T05:05:32;100993.38;;;12.80;86.29
70011;BME280;59543;37.950;-122.338;2023-06-04T05:07:59;100988.22;;;12.69;86.66
70011;BME280;59543;37.950;-122.338;2023-06-04T05:10:25;100987.97;;;12.80;86.34
70011;BME280;59543;37.950;-122.338;2023-06-04T05:12:59;100986.00;;;12.64;87.07
70011;BME280;59543;37.950;-122.338;2023-06-04T05:15:27;100984.53;;;12.70;86.85
70011;BME280;59543;37.950;-122.338;2023-06-04T05:17:53;100987.25;;;12.78;86.30
70011;BME280;59543;37.950;-122.338;2023-06-04T05:20:22;100995.53;;;12.76;86.41
70011;BME280;59543;37.950;-122.338;2023-06-04T05:22:48;100988.84;;;12.63;87.21
70011;BME280;59543;37.950;-122.338;2023-06-04T05:25:15;100990.38;;;12.65;87.08
70011;BME280;59543;37.950;-122.338;2023-06-04T05:27:42;100988.84;;;12.63;87.08
70011;BME280;59543;37.950;-122.338;2023-06-04T05:30:09;100986.84;;;12.65;87.01
70011;BME280;59543;37.950;-122.338;2023-06-04T05:32:35;100997.53;;;12.74;86.44
70011;BME280;59543;37.950;-122.338;2023-06-04T05:35:07;100998.25;;;12.58;86.86
70011;BME280;59543;37.950;-122.338;2023-06-04T05:37:34;101002.72;;;12.50;87.59
70011;BME280;59543;37.950;-122.338;2023-06-04T05:40:01;101007.38;;;12.57;87.15
70011;BME280;59543;37.950;-122.338;2023-06-04T05:42:28;100998.81;;;12.44;87.92
70011;BME280;59543;37.950;-122.338;2023-06-04T05:44:54;100998.88;;;12.52;87.78
70011;BME280;59543;37.950;-122.338;2023-06-04T05:47:21;100995.03;;;12.37;88.39
70011;BME280;59543;37.950;-122.338;2023-06-04T05:49:48;100989.56;;;12.47;88.01
70011;BME280;59543;37.950;-122.338;2023-06-04T05:52:14;100989.16;;;12.42;87.82
70011;BME280;59543;37.950;-122.338;2023-06-04T05:54:40;100979.59;;;12.47;87.62
70011;BME280;59543;37.950;-122.338;2023-06-04T05:57:06;100987.47;;;12.41;87.97
70011;BME280;59543;37.950;-122.338;2023-06-04T05:59:32;100986.16;;;12.45;87.79
70011;BME280;59543;37.950;-122.338;2023-06-04T06:01:59;100990.94;;;12.51;87.22
70011;BME280;59543;37.950;-122.338;2023-06-04T06:04:25;100985.94;;;12.38;88.19
70011;BME280;59543;37.950;-122.338;2023-06-04T06:06:51;100983.22;;;12.38;87.96
70011;BME280;59543;37.950;-122.338;2023-06-04T06:09:18;100993.56;;;12.25;88.92
70011;BME280;59543;37.950;-122.338;2023-06-04T06:11:44;100985.31;;;12.26;88.77
70011;BME280;59543;37.950;-122.338;2023-06-04T06:14:10;100992.25;;;12.29;88.54
70011;BME280;59543;37.950;-122.338;2023-06-04T06:16:36;100987.16;;;12.26;89.13
70011;BME280;59543;37.950;-122.338;2023-06-04T06:19:03;100982.22;;;12.21;89.30
70011;BME280;59543;37.950;-122.338;2023-06-04T06:21:29;100991.09;;;12.31;88.94
70011;BME280;59543;37.950;-122.338;2023-06-04T06:23:55;100986.56;;;12.32;88.64
70011;BME280;59543;37.950;-122.338;2023-06-04T06:26:22;100986.56;;;12.32;88.94
70011;BME280;59543;37.950;-122.338;2023-06-04T06:28:49;100985.00;;;12.29;88.87
70011;BME280;59543;37.950;-122.338;2023-06-04T06:31:16;100981.78;;;12.26;89.24
70011;BME280;59543;37.950;-122.338;2023-06-04T06:33:42;100982.53;;;12.36;88.97
70011;BME280;59543;37.950;-122.338;2023-06-04T06:36:10;100983.72;;;12.33;88.97
70011;BME280;59543;37.950;-122.338;2023-06-04T06:38:40;100981.56;;;12.37;88.50
70011;BME280;59543;37.950;-122.338;2023-06-04T06:41:06;100981.47;;;12.29;88.83
70011;BME280;59543;37.950;-122.338;2023-06-04T06:43:33;100973.47;;;12.37;88.93
70011;BME280;59543;37.950;-122.338;2023-06-04T06:45:59;100977.75;;;12.30;89.29
70011;BME280;59543;37.950;-122.338;2023-06-04T06:48:26;100980.84;;;12.35;89.15
70011;BME280;59543;37.950;-122.338;2023-06-04T06:50:52;100982.69;;;12.34;88.88
70011;BME280;59543;37.950;-122.338;2023-06-04T06:53:18;100983.53;;;12.35;88.75
70011;BME280;59543;37.950;-122.338;2023-06-04T06:55:44;100982.78;;;12.25;89.39
70011;BME280;59543;37.950;-122.338;2023-06-04T06:58:10;100987.78;;;12.20;89.84
70011;BME280;59543;37.950;-122.338;2023-06-04T07:00:37;100988.94;;;12.17;89.93
70011;BME280;59543;37.950;-122.338;2023-06-04T07:03:03;100983.22;;;12.20;89.48
70011;BME280;59543;37.950;-122.338;2023-06-04T07:05:30;100980.84;;;12.17;90.12
70011;BME280;59543;37.950;-122.338;2023-06-04T07:07:57;100990.31;;;12.21;90.13
70011;BME280;59543;37.950;-122.338;2023-06-04T07:10:24;100985.19;;;12.28;89.62
70011;BME280;59543;37.950;-122.338;2023-06-04T07:12:50;100984.06;;;12.21;89.96
70011;BME280;59543;37.950;-122.338;2023-06-04T07:15:16;100978.53;;;12.22;90.54
70011;BME280;59543;37.950;-122.338;2023-06-04T07:17:44;100981.78;;;12.26;90.38
70011;BME280;59543;37.950;-122.338;2023-06-04T07:20:10;100977.84;;;12.20;90.60
70011;BME280;59543;37.950;-122.338;2023-06-04T07:22:37;100977.31;;;12.17;90.98
70011;BME280;59543;37.950;-122.338;2023-06-04T07:25:04;100980.41;;;12.22;91.01
70011;BME280;59543;37.950;-122.338;2023-06-04T07:27:31;100967.59;;;12.24;90.88
70011;BME280;59543;37.950;-122.338;2023-06-04T07:29:57;100973.06;;;12.14;91.43
70011;BME280;59543;37.950;-122.338;2023-06-04T07:32:23;100963.59;;;12.28;90.70
70011;BME280;59543;37.950;-122.338;2023-06-04T07:34:50;100970.69;;;12.29;90.49
70011;BME280;59543;37.950;-122.338;2023-06-04T07:37:16;100967.53;;;12.33;90.54
70011;BME280;59543;37.950;-122.338;2023-06-04T07:39:42;100966.84;;;12.31;90.32
70011;BME280;59543;37.950;-122.338;2023-06-04T07:42:08;100965.59;;;12.26;90.82
70011;BME280;59543;37.950;-122.338;2023-06-04T07:44:37;100963.91;;;12.25;91.33
70011;BME280;59543;37.950;-122.338;2023-06-04T07:47:04;100960.19;;;12.26;90.80
70011;BME280;59543;37.950;-122.338;2023-06-04T07:49:30;100958.25;;;12.18;91.44
70011;BME280;59543;37.950;-122.338;2023-06-04T07:51:56;100956.03;;;12.13;91.80
70011;BME280;59543;37.950;-122.338;2023-06-04T07:54:23;100962.19;;;12.24;91.28
70011;BME280;59543;37.950;-122.338;2023-06-04T07:56:50;100963.44;;;12.11;92.12
70011;BME280;59543;37.950;-122.338;2023-06-04T07:59:22;100965.44;;;12.09;92.46
70011;BME280;59543;37.950;-122.338;2023-06-04T08:01:50;100961.66;;;12.20;92.25
70011;BME280;59543;37.950;-122.338;2023-06-04T08:04:18;100972.13;;;12.05;92.69
70011;BME280;59543;37.950;-122.338;2023-06-04T08:06:44;100977.00;;;12.20;92.30
70011;BME280;59543;37.950;-122.338;2023-06-04T08:09:10;100983.63;;;12.07;92.70
70011;BME280;59543;37.950;-122.338;2023-06-04T08:11:40;100974.13;;;12.03;92.89
70011;BME280;59543;37.950;-122.338;2023-06-04T08:14:07;100981.06;;;12.06;92.78
70011;BME280;59543;37.950;-122.338;2023-06-04T08:16:33;100980.75;;;12.09;92.67
70011;BME280;59543;37.950;-122.338;2023-06-04T08:18:59;100974.81;;;12.05;92.81
70011;BME280;59543;37.950;-122.338;2023-06-04T08:21:26;100980.22;;;12.05;92.20
70011;BME280;59543;37.950;-122.338;2023-06-04T08:23:53;100981.38;;;12.03;92.38
70011;BME280;59543;37.950;-122.338;2023-06-04T08:26:19;100975.91;;;11.95;92.57
70011;BME280;59543;37.950;-122.338;2023-06-04T08:28:48;100974.19;;;11.94;92.62
70011;BME280;59543;37.950;-122.338;2023-06-04T08:31:15;100972.22;;;11.96;92.58
70011;BME280;59543;37.950;-122.338;2023-06-04T08:33:44;100974.44;;;12.00;93.13
70011;BME280;59543;37.950;-122.338;2023-06-04T08:36:10;100964.88;;;11.88;92.82
70011;BME280;59543;37.950;-122.338;2023-06-04T08:38:36;100974.22;;;11.84;93.08
70011;BME280;59543;37.950;-122.338;2023-06-04T08:41:15;100968.28;;;11.90;93.15
70011;BME280;59543;37.950;-122.338;2023-06-04T08:43:42;100971.81;;;11.90;93.37
70011;BME280;59543;37.950;-122.338;2023-06-04T08:46:11;100971.66;;;11.92;92.99
70011;BME280;59543;37.950;-122.338;2023-06-04T08:48:38;100977.72;;;11.94;92.60
70011;BME280;59543;37.950;-122.338;2023-06-04T08:51:06;100970.81;;;11.92;93.02
70011;BME280;59543;37.950;-122.338;2023-06-04T08:53:36;100967.44;;;11.89;93.05
70011;BME280;59543;37.950;-122.338;2023-06-04T08:56:03;100967.91;;;11.75;94.26
70011;BME280;59543;37.950;-122.338;2023-06-04T08:58:31;100960.75;;;11.84;93.53
70011;BME280;59543;37.950;-122.338;2023-06-04T09:01:00;100961.50;;;11.86;93.21
70011;BME280;59543;37.950;-122.338;2023-06-04T09:03:31;100966.72;;;11.87;93.75
70011;BME280;59543;37.950;-122.338;2023-06-04T09:05:59;100963.03;;;11.88;93.31
70011;BME280;59543;37.950;-122.338;2023-06-04T09:08:27;100956.81;;;11.78;93.65
70011;BME280;59543;37.950;-122.338;2023-06-04T09:10:57;100958.81;;;11.86;93.72
70011;BME280;59543;37.950;-122.338;2023-06-04T09:13:28;100955.97;;;11.78;93.69
70011;BME280;59543;37.950;-122.338;2023-06-04T09:16:05;100958.38;;;11.81;93.79
70011;BME280;59543;37.950;-122.338;2023-06-04T09:18:34;100962.38;;;11.77;94.55
70011;BME280;59543;37.950;-122.338;2023-06-04T09:23:27;100957.53;;;11.80;94.10
70011;BME280;59543;37.950;-122.338;2023-06-04T09:25:54;100948.34;;;11.73;94.79
70011;BME280;59543;37.950;-122.338;2023-06-04T09:28:20;100952.28;;;11.79;95.01
70011;BME280;59543;37.950;-122.338;2023-06-04T09:30:55;100945.34;;;11.76;95.22
70011;BME280;59543;37.950;-122.338;2023-06-04T09:33:21;100947.59;;;11.81;94.67
70011;BME280;59543;37.950;-122.338;2023-06-04T09:35:58;100944.19;;;11.79;94.95
70011;BME280;59543;37.950;-122.338;2023-06-04T09:38:34;100946.00;;;11.88;94.69
70011;BME280;59543;37.950;-122.338;2023-06-04T09:41:01;100934.53;;;11.86;94.69
70011;BME280;59543;37.950;-122.338;2023-06-04T09:43:31;100936.22;;;11.87;94.25
70011;BME280;59543;37.950;-122.338;2023-06-04T09:46:15;100931.00;;;11.76;95.06
70011;BME280;59543;37.950;-122.338;2023-06-04T09:48:42;100924.25;;;11.72;95.55
70011;BME280;59543;37.950;-122.338;2023-06-04T09:51:15;100928.59;;;11.82;95.50
70011;BME280;59543;37.950;-122.338;2023-06-04T09:54:05;100924.88;;;11.83;95.29
70011;BME280;59543;37.950;-122.338;2023-06-04T09:56:39;100932.44;;;11.80;95.57
70011;BME280;59543;37.950;-122.338;2023-06-04T09:59:08;100927.94;;;11.71;95.27
70011;BME280;59543;37.950;-122.338;2023-06-04T10:01:39;100936.41;;;11.76;95.01
70011;BME280;59543;37.950;-122.338;2023-06-04T10:04:09;100925.88;;;11.82;94.84
70011;BME280;59543;37.950;-122.338;2023-06-04T10:06:38;100928.41;;;11.84;94.72
70011;BME280;59543;37.950;-122.338;2023-06-04T10:09:06;100925.94;;;11.73;95.23
70011;BME280;59543;37.950;-122.338;2023-06-04T10:11:40;100928.31;;;11.76;95.36
70011;BME280;59543;37.950;-122.338;2023-06-04T10:14:10;100924.78;;;11.75;95.48
70011;BME280;59543;37.950;-122.338;2023-06-04T10:16:38;100920.63;;;11.81;95.21
70011;BME280;59543;37.950;-122.338;2023-06-04T10:19:07;100923.94;;;11.75;95.57
70011;BME280;59543;37.950;-122.338;2023-06-04T10:21:34;100920.81;;;11.79;95.48
70011;BME280;59543;37.950;-122.338;2023-06-04T10:24:02;100920.16;;;11.67;96.50
70011;BME280;59543;37.950;-122.338;2023-06-04T10:26:28;100921.84;;;11.68;96.38
70011;BME280;59543;37.950;-122.338;2023-06-04T10:28:57;100927.25;;;11.68;96.47
70011;BME280;59543;37.950;-122.338;2023-06-04T10:31:24;100916.47;;;11.68;96.06
70011;BME280;59543;37.950;-122.338;2023-06-04T10:33:54;100913.91;;;11.67;96.29
70011;BME280;59543;37.950;-122.338;2023-06-04T10:36:22;100913.53;;;11.62;96.34
70011;BME280;59543;37.950;-122.338;2023-06-04T10:38:53;100909.28;;;11.59;97.02
70011;BME280;59543;37.950;-122.338;2023-06-04T10:41:20;100906.91;;;11.56;97.04
70011;BME280;59543;37.950;-122.338;2023-06-04T10:43:51;100911.69;;;11.62;96.78
70011;BME280;59543;37.950;-122.338;2023-06-04T10:46:19;100903.91;;;11.59;96.51
70011;BME280;59543;37.950;-122.338;2023-06-04T10:48:50;100903.28;;;11.65;96.00
70011;BME280;59543;37.950;-122.338;2023-06-04T10:51:32;100906.19;;;11.54;96.26
70011;BME280;59543;37.950;-122.338;2023-06-04T10:54:00;100909.13;;;11.61;96.13
70011;BME280;59543;37.950;-122.338;2023-06-04T10:56:27;100912.44;;;11.55;95.83
70011;BME280;59543;37.950;-122.338;2023-06-04T10:58:53;100912.44;;;11.55;96.26
70011;BME280;59543;37.950;-122.338;2023-06-04T11:01:27;100902.13;;;11.50;96.10
70011;BME280;59543;37.950;-122.338;2023-06-04T11:03:55;100916.88;;;11.46;96.16
70011;BME280;59543;37.950;-122.338;2023-06-04T11:06:22;100917.28;;;11.51;95.69
70011;BME280;59543;37.950;-122.338;2023-06-04T11:08:48;100918.81;;;11.54;95.55
70011;BME280;59543;37.950;-122.338;2023-06-04T11:11:15;100909.50;;;11.48;95.56
70011;BME280;59543;37.950;-122.338;2023-06-04T11:13:43;100907.81;;;11.47;95.68
70011;BME280;59543;37.950;-122.338;2023-06-04T11:16:19;100914.09;;;11.38;96.34
70011;BME280;59543;37.950;-122.338;2023-06-04T11:18:56;100903.34;;;11.38;96.77
70011;BME280;59543;37.950;-122.338;2023-06-04T11:21:22;100916.09;;;11.36;96.94
70011;BME280;59543;37.950;-122.338;2023-06-04T11:23:49;100908.00;;;11.36;97.51
70011;BME280;59543;37.950;-122.338;2023-06-04T11:26:21;100912.69;;;11.34;97.32
70011;BME280;59543;37.950;-122.338;2023-06-04T11:28:50;100913.28;;;11.28;97.46
70011;BME280;59543;37.950;-122.338;2023-06-04T11:31:17;100915.06;;;11.37;97.00
70011;BME280;59543;37.950;-122.338;2023-06-04T11:33:44;100916.56;;;11.31;97.45
70011;BME280;59543;37.950;-122.338;2023-06-04T11:36:22;100914.69;;;11.32;97.43
70011;BME280;59543;37.950;-122.338;2023-06-04T11:39:01;100918.78;;;11.36;97.87
70011;BME280;59543;37.950;-122.338;2023-06-04T11:41:30;100915.97;;;11.28;97.90
70011;BME280;59543;37.950;-122.338;2023-06-04T11:43:57;100903.88;;;11.41;97.32
70011;BME280;59543;37.950;-122.338;2023-06-04T11:46:24;100912.84;;;11.32;97.82
70011;BME280;59543;37.950;-122.338;2023-06-04T11:48:51;100914.53;;;11.33;97.98
70011;BME280;59543;37.950;-122.338;2023-06-04T11:51:20;100916.56;;;11.31;97.84
70011;BME280;59543;37.950;-122.338;2023-06-04T11:53:47;100914.94;;;11.38;97.48
70011;BME280;59543;37.950;-122.338;2023-06-04T11:56:14;100907.91;;;11.28;97.82
70011;BME280;59543;37.950;-122.338;2023-06-04T11:58:41;100911.72;;;11.35;98.01
70011;BME280;59543;37.950;-122.338;2023-06-04T12:01:08;100916.56;;;11.31;98.30
70011;BME280;59543;37.950;-122.338;2023-06-04T12:03:42;100917.22;;;11.33;98.54
70011;BME280;59543;37.950;-122.338;2023-06-04T12:06:16;100914.69;;;11.32;97.98
70011;BME280;59543;37.950;-122.338;2023-06-04T12:11:34;100906.34;;;11.25;97.94
70011;BME280;59543;37.950;-122.338;2023-06-04T12:14:06;100905.78;;;11.31;97.68
70011;BME280;59543;37.950;-122.338;2023-06-04T12:16:36;100904.78;;;11.32;97.50
70011;BME280;59543;37.950;-122.338;2023-06-04T12:19:10;100905.22;;;11.28;97.20
70011;BME280;59543;37.950;-122.338;2023-06-04T12:21:37;100904.53;;;11.26;97.75
70011;BME280;59543;37.950;-122.338;2023-06-04T12:24:14;100900.69;;;11.28;97.29
70011;BME280;59543;37.950;-122.338;2023-06-04T12:26:42;100899.53;;;11.31;97.07
70011;BME280;59543;37.950;-122.338;2023-06-04T12:29:17;100905.38;;;11.26;97.22
70011;BME280;59543;37.950;-122.338;2023-06-04T12:31:46;100910.09;;;11.14;97.53
70011;BME280;59543;37.950;-122.338;2023-06-04T12:34:15;100910.81;;;11.16;97.59
70011;BME280;59543;37.950;-122.338;2023-06-04T12:36:43;100907.00;;;11.09;98.05